Shagang Hongfa — 9V9138 — position and weather

sailwx.info

Track history (hours):
 
Tides and Currents Weather Stations Pressure Air Temp Water Temp Dewpoint Dewpoint Depression Visibility Wind Speed Wind Dir Waves Ship Positions

Shagang Hongfa

Last reported at 2016-Apr-28 19:31 UTC. Time now 2016-May-01 08:03 UTC.
Position N 31°04' E 123°56'.

Length 292 m; draft 10.5 m.

Type: Ship. MMSI: 566178000.

Date/timePositionNaut miles runAvg speedWind from/ knotsBaromVisibWave heightAir tempDewpointWater temp
2016-Apr-28 19:31N 31°04' E 123°56'1111.4
2016-Apr-28 18:33N 31°15' E 123°57'331 9.9
2016-Apr-27 09:05N 35°22' E 119°33'0 0.0
2016-Apr-26 02:10N 35°22' E 119°33'0 0.0
2016-Apr-26 01:28N 35°22' E 119°33'0 0.0
2016-Apr-25 22:04N 35°22' E 119°33'0 0.0
2016-Apr-25 21:16N 35°22' E 119°33'0 0.0
2016-Apr-25 20:23N 35°22' E 119°33'0 0.0
2016-Apr-25 00:29N 35°22' E 119°33'0 0.0
2016-Apr-24 18:11N 35°22' E 119°33'0 0.0
2016-Apr-24 11:11N 35°22' E 119°33'1 1.8
2016-Apr-24 10:29N 35°21' E 119°33'8 7.9
2016-Apr-24 09:30N 35°17' E 119°41'24 2.3
2016-Apr-23 23:11N 35°13' E 120°10'811.8
2016-Apr-23 22:30N 35°14' E 120°20'1411.9
2016-Apr-23 21:18N 35°17' E 120°37'27 8.9
2016-Apr-23 18:14N 35°40' E 120°54'  
Track history (hours):
 
Tides and Currents Weather Stations Pressure Air Temp Water Temp Dewpoint Dewpoint Depression Visibility Wind Speed Wind Dir Waves Ship Positions

Shagang Hongfa

Last reported at 2016-Apr-28 19:31 UTC. Time now 2016-May-01 08:03 UTC.
Position N 31°04' E 123°56'.

Length 292 m; draft 10.5 m.

Type: Ship. MMSI: 566178000.

Date/timePositionNaut miles runAvg speedWind from/ knotsBaromVisibWave heightAir tempDewpointWater temp
2016-Apr-28 19:31N 31°04' E 123°56'1111.4
2016-Apr-28 18:33N 31°15' E 123°57'331 9.9
2016-Apr-27 09:05N 35°22' E 119°33'0 0.0
2016-Apr-26 02:10N 35°22' E 119°33'0 0.0
2016-Apr-26 01:28N 35°22' E 119°33'0 0.0
2016-Apr-25 22:04N 35°22' E 119°33'0 0.0
2016-Apr-25 21:16N 35°22' E 119°33'0 0.0
2016-Apr-25 20:23N 35°22' E 119°33'0 0.0
2016-Apr-25 00:29N 35°22' E 119°33'0 0.0
2016-Apr-24 18:11N 35°22' E 119°33'0 0.0
2016-Apr-24 11:11N 35°22' E 119°33'1 1.8
2016-Apr-24 10:29N 35°21' E 119°33'8 7.9
2016-Apr-24 09:30N 35°17' E 119°41'24 2.3
2016-Apr-23 23:11N 35°13' E 120°10'811.8
2016-Apr-23 22:30N 35°14' E 120°20'1411.9
2016-Apr-23 21:18N 35°17' E 120°37'27 8.9
2016-Apr-23 18:14N 35°40' E 120°54'  

Dump ship's entire track history